Portada
METAR-TAF:

METAR-TAF

Aeroports :

Armilla

Granada, Espanya

latitud: 37-08N, longitud: 003-38-08W, altitud: 700 m

Observació

L'informe es va fer fa 2 hores i 54 minuts, a les 13:00 UTC
Vent 3 kt del Sud-Est
Temperatura 9°C
Humitat 87%
Pressió 1030 hPa
Visibilitat 10 km o més
Escasses núvols a una alçada de 3800 ft
Cel cobert a una alçada de 7100 ft

METAR: LEGA 181300Z 14003KT 9999 FEW038 OVC071 09/07 Q1030

Hora: 16:54 (15:54 UTC)

Pronòstic

L'informe es va fer fa 1 hora i 54 minuts, a les 14:00 UTC
Pronòstic vàlid del 18 a les 15 UTC al 18 a les 24 UTC
Vent 4 kt del Sud
Visibilitat 10 km o més
Cel ennuvolat a una alçada de 3000 ft
Probabilitat 40% :
Temporalment
l' 18 a les 15 UTC al 18 a les 24 UTC
Visibilitat: 4000 m
Cel ennuvolat a una alçada de 1000 ft
pluja, boirina

TAF: LEGA 181400Z 1815/1824 18004KT 9999 BKN030 PROB40 TEMPO 1815/1824 4000 -RA BR BKN010

Observacions i pronòstics meteorològics de més de 4000 aeroports (METAR i TAF).

Les estacions disponibles són els punts grocs i vermells al mapa.

Posi el ratolí al punt desitjat per veure el nom de l'estació.

Feu clic per veure les observacions i els pronòstics meteorològics.

Per canviar el mapa: feu clic els botons verds amb una creu de color negre per apropar; al botó verd amb un guió per allunyar la imatge; o en les fletxes verdes per a mapes adjacents.


METAR-TAF: